createdAt,value
2018-12-02T00:01:58.280Z,99.90
2018-12-02T00:04:27.820Z,99.90
2018-12-02T00:06:57.268Z,99.90
2018-12-02T00:09:27.385Z,99.90
2018-12-02T00:11:57.534Z,99.90
2018-12-02T00:14:27.135Z,99.90
2018-12-02T00:16:56.541Z,99.90
2018-12-02T00:19:26.050Z,99.90
2018-12-02T00:21:55.434Z,99.90
2018-12-02T00:24:24.820Z,99.90
2018-12-02T00:26:54.363Z,99.90
2018-12-02T00:29:23.837Z,99.90
2018-12-02T00:31:53.401Z,99.90
2018-12-02T00:34:22.800Z,99.90
2018-12-02T00:36:52.272Z,99.90
2018-12-02T00:39:21.645Z,99.90
2018-12-02T00:41:51.117Z,99.90
2018-12-02T00:44:20.501Z,99.90
2018-12-02T00:46:50.000Z,99.90
2018-12-02T00:49:19.404Z,99.90
2018-12-02T00:51:48.889Z,99.90
2018-12-02T00:54:18.283Z,99.90
2018-12-02T00:56:47.883Z,99.90
2018-12-02T00:59:17.270Z,99.90
2018-12-02T01:05:03.825Z,99.90
2018-12-02T01:07:34.608Z,99.90
2018-12-02T01:10:04.187Z,99.90
2018-12-02T01:12:33.933Z,99.90
2018-12-02T01:15:03.580Z,99.90
2018-12-02T01:17:33.085Z,99.90
2018-12-02T01:20:02.555Z,99.90
2018-12-02T01:22:31.885Z,99.90
2018-12-02T01:25:01.232Z,99.90
2018-12-02T01:27:30.744Z,99.90
2018-12-02T01:30:00.177Z,99.90
2018-12-02T01:32:29.755Z,99.90
2018-12-02T01:34:59.770Z,99.90
2018-12-02T01:37:29.275Z,99.90
2018-12-02T01:39:58.979Z,99.90
2018-12-02T01:42:28.450Z,99.90
2018-12-02T01:44:57.835Z,99.90
2018-12-02T01:47:27.294Z,99.90
2018-12-02T01:49:56.695Z,99.90
2018-12-02T01:52:26.037Z,99.90
2018-12-02T01:54:55.404Z,99.90
2018-12-02T01:57:24.723Z,99.90
2018-12-02T01:59:54.144Z,99.90
2018-12-02T02:02:23.510Z,99.90
2018-12-02T02:04:52.895Z,99.90
2018-12-02T02:07:22.238Z,99.90
2018-12-02T02:09:51.567Z,99.90
2018-12-02T02:12:21.065Z,99.90
2018-12-02T02:14:50.680Z,99.90
2018-12-02T02:17:20.114Z,99.90
2018-12-02T02:19:49.450Z,99.90
2018-12-02T02:22:18.886Z,99.90
2018-12-02T02:24:48.245Z,99.90
2018-12-02T02:27:17.596Z,99.90
2018-12-02T02:29:46.979Z,99.90
2018-12-02T02:32:16.492Z,99.90
2018-12-02T02:34:45.869Z,99.90
2018-12-02T02:37:15.272Z,99.90
2018-12-02T02:39:44.697Z,99.90
2018-12-02T02:42:14.054Z,99.90
2018-12-02T02:44:43.439Z,99.90
2018-12-02T02:47:12.903Z,99.90
2018-12-02T02:49:42.353Z,99.90
2018-12-02T02:52:11.827Z,99.90
2018-12-02T02:54:42.188Z,99.90
2018-12-02T02:57:11.650Z,99.90
2018-12-02T02:59:41.027Z,99.90
2018-12-02T03:02:10.376Z,99.90
2018-12-02T03:04:39.708Z,99.90
2018-12-02T03:07:09.068Z,99.90
2018-12-02T03:09:38.447Z,99.90
2018-12-02T03:12:07.845Z,99.90
2018-12-02T03:14:37.239Z,99.90
2018-12-02T03:17:06.994Z,99.90
2018-12-02T03:19:36.487Z,99.90
2018-12-02T03:22:06.367Z,99.90
2018-12-02T03:24:35.812Z,99.90
2018-12-02T03:27:05.419Z,99.90
2018-12-02T03:29:34.869Z,99.90
2018-12-02T03:32:04.432Z,99.90
2018-12-02T03:34:33.882Z,99.90
2018-12-02T03:37:03.348Z,99.90
2018-12-02T03:39:32.879Z,99.90
2018-12-02T03:42:04.310Z,99.90
2018-12-02T03:44:34.474Z,99.90
2018-12-02T03:47:03.944Z,99.90
2018-12-02T03:49:33.354Z,99.90
2018-12-02T03:52:02.861Z,99.90
2018-12-02T03:54:32.927Z,99.90
2018-12-02T03:57:02.362Z,99.90
2018-12-02T03:59:31.874Z,99.90
2018-12-02T04:02:01.381Z,99.90
2018-12-02T04:04:30.886Z,99.90
2018-12-02T04:07:00.432Z,99.90
2018-12-02T04:09:29.870Z,99.90
2018-12-02T04:11:59.307Z,99.90
2018-12-02T04:14:28.741Z,99.90
2018-12-02T04:16:58.198Z,99.90
2018-12-02T04:19:27.729Z,99.90
2018-12-02T04:21:57.205Z,99.90
2018-12-02T04:24:26.650Z,99.90
2018-12-02T04:26:56.028Z,99.90
2018-12-02T04:29:25.484Z,99.90
2018-12-02T04:31:54.973Z,99.90
2018-12-02T04:34:27.249Z,99.90
2018-12-02T04:36:56.908Z,99.90
2018-12-02T04:39:26.431Z,99.90
2018-12-02T04:41:59.553Z,99.90
2018-12-02T04:44:32.946Z,99.90
2018-12-02T04:47:02.895Z,99.90
2018-12-02T04:49:32.263Z,99.90
2018-12-02T04:52:01.706Z,99.90
2018-12-02T04:54:31.183Z,99.90
2018-12-02T04:57:00.676Z,99.90
2018-12-02T04:59:30.150Z,99.90
2018-12-02T05:01:59.665Z,99.90
2018-12-02T05:04:29.123Z,99.90
2018-12-02T05:06:58.545Z,99.90
2018-12-02T05:09:27.885Z,99.90
2018-12-02T05:11:57.293Z,99.90
2018-12-02T05:14:26.763Z,99.90
2018-12-02T05:16:56.205Z,99.90
2018-12-02T05:19:25.725Z,99.90
2018-12-02T05:21:55.126Z,99.90
2018-12-02T05:24:24.514Z,99.90
2018-12-02T05:26:54.005Z,99.90
2018-12-02T05:29:23.434Z,99.90
2018-12-02T05:31:52.885Z,99.90
2018-12-02T05:34:23.176Z,99.90
2018-12-02T05:36:52.572Z,99.90
2018-12-02T05:39:21.993Z,99.90
2018-12-02T05:41:56.883Z,99.90
2018-12-02T05:44:26.359Z,99.90
2018-12-02T05:46:55.875Z,99.90
2018-12-02T05:49:25.344Z,99.90
2018-12-02T05:51:54.809Z,99.90
2018-12-02T05:54:24.303Z,99.90
2018-12-02T05:56:53.742Z,99.90
2018-12-02T05:59:23.202Z,99.90
2018-12-02T06:01:52.758Z,99.90
2018-12-02T06:04:22.208Z,99.90
2018-12-02T06:06:51.678Z,99.90
2018-12-02T06:09:21.133Z,99.90
2018-12-02T06:11:50.613Z,99.90
2018-12-02T06:14:20.040Z,99.90
2018-12-02T06:16:49.467Z,99.90
2018-12-02T06:19:18.885Z,99.90
2018-12-02T06:21:48.315Z,99.90
2018-12-02T06:24:18.685Z,99.90
2018-12-02T06:26:48.624Z,99.90
2018-12-02T06:29:18.102Z,99.90
2018-12-02T06:31:47.594Z,99.90
2018-12-02T06:34:17.043Z,99.90
2018-12-02T06:36:46.605Z,99.90
2018-12-02T06:39:16.179Z,99.90
2018-12-02T06:41:45.668Z,99.90
2018-12-02T06:44:15.155Z,99.90
2018-12-02T06:46:44.713Z,99.90
2018-12-02T06:49:14.200Z,99.90
2018-12-02T06:51:43.676Z,99.90
2018-12-02T06:54:13.177Z,99.90
2018-12-02T06:56:42.711Z,99.90
2018-12-02T07:01:24.294Z,99.90
2018-12-02T07:04:07.270Z,99.90
2018-12-02T07:06:36.772Z,99.90
2018-12-02T07:09:08.314Z,99.90
2018-12-02T07:11:37.898Z,99.90
2018-12-02T07:14:07.363Z,99.90
2018-12-02T07:16:36.832Z,99.90
2018-12-02T07:19:09.522Z,99.90
2018-12-02T07:21:39.201Z,99.90
2018-12-02T07:24:10.219Z,99.90
2018-12-02T07:26:39.746Z,99.90
2018-12-02T07:29:09.227Z,99.90
2018-12-02T07:31:38.718Z,99.90
2018-12-02T07:34:25.975Z,99.90
2018-12-02T07:37:06.148Z,99.90
2018-12-02T07:40:56.465Z,99.90
2018-12-02T07:43:25.962Z,99.90
2018-12-02T07:45:55.468Z,99.90
2018-12-02T07:48:25.024Z,99.90
2018-12-02T07:50:54.708Z,99.90
2018-12-02T07:53:24.217Z,99.90
2018-12-02T07:55:53.655Z,99.90
2018-12-02T07:58:23.053Z,99.90
2018-12-02T08:00:52.457Z,99.90
2018-12-02T08:03:21.853Z,99.90
2018-12-02T08:05:51.273Z,99.90
2018-12-02T08:08:20.707Z,99.90
2018-12-02T08:10:50.112Z,99.90
2018-12-02T08:13:19.585Z,99.90
2018-12-02T08:22:04.177Z,99.90
2018-12-02T08:24:34.420Z,99.90
2018-12-02T08:27:04.589Z,99.20
2018-12-02T08:29:34.624Z,98.20
2018-12-02T08:32:04.440Z,96.10
2018-12-02T08:34:34.032Z,95.20
2018-12-02T08:37:03.530Z,96.10
2018-12-02T08:39:32.918Z,96.50
2018-12-02T08:42:02.354Z,97.10
2018-12-02T08:44:32.407Z,93.30
2018-12-02T08:47:01.844Z,93.10
2018-12-02T08:49:31.244Z,91.60
2018-12-02T08:52:00.612Z,91.70
2018-12-02T08:54:29.942Z,91.70
2018-12-02T08:56:59.283Z,91.90
2018-12-02T08:59:28.617Z,92.20
2018-12-02T09:01:57.918Z,92.90
2018-12-02T09:04:27.277Z,92.30
2018-12-02T09:06:56.689Z,85.10
2018-12-02T09:09:26.349Z,86.20
2018-12-02T09:11:55.892Z,85.30
2018-12-02T09:14:25.367Z,87.30
2018-12-02T09:16:54.950Z,84.80
2018-12-02T09:19:24.380Z,82.50
2018-12-02T09:21:54.427Z,83.60
2018-12-02T09:24:23.885Z,87.00
2018-12-02T09:26:53.274Z,87.90
2018-12-02T09:29:22.691Z,89.90
2018-12-02T09:31:52.117Z,91.40
2018-12-02T09:34:21.523Z,90.20
2018-12-02T09:36:50.975Z,94.60
2018-12-02T09:39:20.365Z,91.80
2018-12-02T09:41:49.722Z,91.40
2018-12-02T09:44:19.122Z,93.30
2018-12-02T09:46:48.504Z,92.80
2018-12-02T09:49:17.947Z,91.90
2018-12-02T09:51:47.419Z,92.20
2018-12-02T09:54:16.792Z,92.80
2018-12-02T09:56:46.214Z,91.80
2018-12-02T09:59:15.624Z,89.70
2018-12-02T10:01:45.090Z,90.30
2018-12-02T10:04:14.519Z,90.00
2018-12-02T10:06:43.908Z,92.10
2018-12-02T10:09:13.357Z,90.70
2018-12-02T10:11:43.468Z,92.60
2018-12-02T10:14:12.915Z,93.40
2018-12-02T10:19:50.270Z,90.50
2018-12-02T10:22:19.790Z,89.60
2018-12-02T10:24:49.432Z,89.60
2018-12-02T10:27:19.365Z,89.20
2018-12-02T10:29:48.785Z,88.20
2018-12-02T10:32:18.208Z,87.90
2018-12-02T10:34:47.619Z,87.40
2018-12-02T10:37:17.110Z,85.10
2018-12-02T10:39:46.577Z,86.50
2018-12-02T10:42:16.092Z,83.80
2018-12-02T10:44:45.575Z,85.20
2018-12-02T10:47:15.010Z,81.70
2018-12-02T10:49:44.462Z,81.50
2018-12-02T10:52:13.919Z,80.90
2018-12-02T10:54:43.402Z,81.90
2018-12-02T10:57:13.800Z,81.00
2018-12-02T10:59:43.320Z,80.60
2018-12-02T11:02:15.786Z,79.90
2018-12-02T11:04:45.392Z,79.30
2018-12-02T11:07:14.886Z,80.10
2018-12-02T11:09:44.575Z,81.30
2018-12-02T11:12:14.157Z,79.60
2018-12-02T11:14:43.833Z,80.90
2018-12-02T11:17:13.322Z,81.50
2018-12-02T11:19:42.762Z,83.40
2018-12-02T11:22:12.182Z,83.20
2018-12-02T11:24:41.648Z,83.10
2018-12-02T11:27:11.121Z,83.20
2018-12-02T11:29:40.680Z,84.70
2018-12-02T11:32:10.149Z,86.10
2018-12-02T11:34:39.632Z,86.70
2018-12-02T11:37:09.034Z,86.60
2018-12-02T11:39:38.562Z,86.60
2018-12-02T11:42:07.980Z,86.40
2018-12-02T11:44:37.525Z,85.00
2018-12-02T11:47:07.058Z,84.90
2018-12-02T11:49:36.580Z,84.10
2018-12-02T11:52:05.995Z,84.50
2018-12-02T11:54:35.466Z,85.00
2018-12-02T11:57:05.010Z,84.50
2018-12-02T11:59:34.523Z,84.10
2018-12-02T12:02:07.621Z,84.20
2018-12-02T12:04:33.610Z,83.50
2018-12-02T12:07:03.089Z,83.10
2018-12-02T12:09:33.270Z,82.40
2018-12-02T12:12:02.830Z,83.30
2018-12-02T12:14:32.290Z,83.40
2018-12-02T12:17:01.841Z,84.10
2018-12-02T12:19:31.488Z,85.10
2018-12-02T12:22:00.980Z,85.10
2018-12-02T12:24:30.418Z,85.00
2018-12-02T12:26:59.968Z,85.00
2018-12-02T12:29:29.529Z,84.80
2018-12-02T12:31:59.020Z,85.70
2018-12-02T12:34:28.430Z,86.10
2018-12-02T12:36:58.170Z,86.70
2018-12-02T12:39:27.661Z,86.00
2018-12-02T12:41:57.277Z,85.60
2018-12-02T12:44:26.750Z,85.20
2018-12-02T12:46:56.213Z,84.60
2018-12-02T12:49:25.613Z,85.00
2018-12-02T12:51:55.098Z,85.80
2018-12-02T12:54:24.587Z,85.10
2018-12-02T12:56:54.036Z,84.50
2018-12-02T12:59:23.489Z,84.70
2018-12-02T13:01:53.197Z,84.80
2018-12-02T13:04:22.658Z,85.60
2018-12-02T13:06:52.157Z,85.80
2018-12-02T13:09:21.613Z,85.70
2018-12-02T13:11:51.684Z,84.60
2018-12-02T13:14:21.235Z,82.00
2018-12-02T13:16:50.632Z,80.90
2018-12-02T13:19:20.135Z,77.10
2018-12-02T13:21:50.203Z,76.80
2018-12-02T13:24:19.877Z,76.00
2018-12-02T13:26:49.333Z,75.80
2018-12-02T13:29:18.863Z,76.00
2018-12-02T13:31:48.320Z,77.50
2018-12-02T13:34:17.791Z,78.30
2018-12-02T13:36:47.268Z,77.90
2018-12-02T13:39:16.785Z,78.40
2018-12-02T13:41:46.167Z,79.00
2018-12-02T13:44:15.622Z,78.90
2018-12-02T13:46:45.145Z,79.10
2018-12-02T13:49:14.742Z,78.90
2018-12-02T13:51:44.254Z,79.80
2018-12-02T13:54:19.305Z,79.60
2018-12-02T13:56:48.768Z,80.20
2018-12-02T13:59:18.347Z,80.50
2018-12-02T14:01:47.737Z,81.60
2018-12-02T14:04:18.223Z,81.70
2018-12-02T14:06:47.724Z,79.90
2018-12-02T14:09:17.135Z,79.20
2018-12-02T14:11:46.679Z,78.40
2018-12-02T14:14:16.145Z,77.70
2018-12-02T14:17:07.898Z,78.10
2018-12-02T14:19:39.509Z,78.60
2018-12-02T14:22:09.017Z,80.30
2018-12-02T14:24:38.543Z,79.90
2018-12-02T14:27:09.767Z,80.60
2018-12-02T14:29:45.327Z,81.20
2018-12-02T14:32:17.041Z,80.90
2018-12-02T14:34:46.474Z,81.40
2018-12-02T14:37:15.998Z,82.40
2018-12-02T14:39:45.527Z,83.20
2018-12-02T14:42:15.243Z,83.50
2018-12-02T14:44:44.623Z,83.90
2018-12-02T14:47:14.175Z,84.40
2018-12-02T14:49:43.655Z,84.40
2018-12-02T14:52:13.150Z,84.20
2018-12-02T14:54:44.113Z,82.90
2018-12-02T14:57:13.577Z,83.90
2018-12-02T14:59:43.034Z,84.90
2018-12-02T15:02:12.618Z,86.00
2018-12-02T15:04:42.130Z,86.80
2018-12-02T15:07:11.598Z,87.60
2018-12-02T15:09:41.146Z,87.70
2018-12-02T15:12:10.600Z,87.50
2018-12-02T15:14:40.040Z,87.30
2018-12-02T15:17:09.573Z,87.20
2018-12-02T15:19:39.086Z,88.20
2018-12-02T15:22:08.939Z,87.50
2018-12-02T15:24:39.053Z,87.00
2018-12-02T15:27:08.556Z,86.10
2018-12-02T15:29:38.305Z,87.40
2018-12-02T15:32:07.433Z,88.40
2018-12-02T15:34:36.990Z,89.60
2018-12-02T15:37:07.190Z,89.80
2018-12-02T15:39:36.701Z,89.70
2018-12-02T15:42:06.926Z,89.50
2018-12-02T15:44:36.694Z,90.20
2018-12-02T15:47:06.306Z,91.60
2018-12-02T15:49:35.828Z,92.30
2018-12-02T15:52:06.321Z,93.20
2018-12-02T15:54:35.984Z,94.00
2018-12-02T15:57:05.604Z,94.30
2018-12-02T15:59:35.024Z,94.30
2018-12-02T16:02:04.671Z,94.10
2018-12-02T16:04:34.193Z,94.90
2018-12-02T16:07:04.254Z,95.10
2018-12-02T16:09:33.819Z,95.60
2018-12-02T16:12:03.336Z,95.80
2018-12-02T16:14:32.935Z,96.00
2018-12-02T16:17:03.086Z,96.60
2018-12-02T16:19:32.642Z,97.00
2018-12-02T16:22:02.286Z,97.30
2018-12-02T16:24:31.825Z,98.00
2018-12-02T16:27:01.275Z,97.90
2018-12-02T16:29:30.764Z,98.00
2018-12-02T16:32:00.364Z,98.40
2018-12-02T16:34:30.537Z,98.60
2018-12-02T16:36:59.990Z,98.60
2018-12-02T16:39:29.610Z,98.50
2018-12-02T16:42:00.219Z,98.30
2018-12-02T16:44:29.904Z,98.40
2018-12-02T16:46:59.632Z,98.40
2018-12-02T16:49:29.141Z,99.10
2018-12-02T16:51:58.708Z,99.30
2018-12-02T16:54:28.249Z,99.50
2018-12-02T16:56:58.212Z,99.80
2018-12-02T16:59:33.652Z,99.90
2018-12-02T17:02:07.243Z,99.90
2018-12-02T17:04:37.883Z,99.90
2018-12-02T17:07:07.546Z,99.90
2018-12-02T17:09:37.159Z,99.90
2018-12-02T17:12:07.000Z,99.90
2018-12-02T17:14:38.758Z,99.90
2018-12-02T17:17:07.350Z,99.90
2018-12-02T17:19:38.297Z,99.90
2018-12-02T17:22:08.108Z,99.90
2018-12-02T17:24:37.787Z,99.90
2018-12-02T17:27:07.587Z,99.90
2018-12-02T17:29:41.451Z,99.90
2018-12-02T17:32:11.619Z,99.90
2018-12-02T17:34:41.227Z,99.90
2018-12-02T17:37:11.570Z,99.90
2018-12-02T17:39:46.546Z,99.90
2018-12-02T17:42:16.124Z,99.90
2018-12-02T17:44:46.493Z,99.90
2018-12-02T17:47:16.717Z,99.90
2018-12-02T17:49:46.320Z,99.90
2018-12-02T17:52:15.834Z,99.60
2018-12-02T17:54:45.287Z,99.40
2018-12-02T17:57:15.357Z,99.60
2018-12-02T17:59:44.821Z,99.80
2018-12-02T18:02:15.478Z,99.80
2018-12-02T18:04:43.985Z,99.90
2018-12-02T18:07:13.457Z,99.90
2018-12-02T18:09:42.869Z,99.90
2018-12-02T18:12:13.041Z,99.90
2018-12-02T18:14:42.520Z,99.90
2018-12-02T18:17:12.001Z,99.90
2018-12-02T18:19:41.493Z,99.90
2018-12-02T18:22:11.062Z,99.90
2018-12-02T18:24:40.699Z,99.90
2018-12-02T18:27:10.168Z,99.90
2018-12-02T18:29:39.557Z,99.90
2018-12-02T18:32:09.064Z,99.90
2018-12-02T18:34:38.567Z,99.90
2018-12-02T18:37:10.641Z,99.90
2018-12-02T18:39:40.063Z,99.90
2018-12-02T18:42:10.021Z,99.80
2018-12-02T18:44:39.456Z,99.30
2018-12-02T18:47:08.954Z,99.10
2018-12-02T18:49:38.444Z,99.00
2018-12-02T18:52:07.981Z,98.60
2018-12-02T18:54:37.425Z,98.50
2018-12-02T18:57:07.285Z,98.10
2018-12-02T18:59:36.770Z,98.00
2018-12-02T19:02:07.087Z,97.80
2018-12-02T19:04:36.534Z,98.30
2018-12-02T19:07:06.045Z,97.40
2018-12-02T19:09:35.673Z,97.70
2018-12-02T19:12:05.639Z,97.90
2018-12-02T19:14:35.106Z,98.10
2018-12-02T19:17:04.591Z,98.20
2018-12-02T19:19:34.914Z,98.30
2018-12-02T19:22:05.286Z,98.30
2018-12-02T19:24:35.386Z,97.60
2018-12-02T19:27:05.454Z,97.50
2018-12-02T19:29:35.779Z,97.60
2018-12-02T19:32:06.284Z,96.50
2018-12-02T19:34:35.938Z,95.60
2018-12-02T19:37:08.922Z,95.10
2018-12-02T19:39:39.448Z,94.00
2018-12-02T19:42:09.206Z,94.10
2018-12-02T19:44:38.704Z,93.60
2018-12-02T19:47:08.398Z,93.20
2018-12-02T19:49:40.244Z,92.30
2018-12-02T19:52:10.492Z,92.50
2018-12-02T19:54:41.188Z,92.60
2018-12-02T19:57:10.746Z,92.80
2018-12-02T19:59:40.861Z,93.10
2018-12-02T20:02:11.343Z,93.30
2018-12-02T20:04:41.480Z,92.90
2018-12-02T20:07:11.092Z,92.90
2018-12-02T20:09:41.538Z,92.40
2018-12-02T20:12:12.322Z,92.20
2018-12-02T20:14:41.214Z,91.80
2018-12-02T20:17:10.902Z,92.20
2018-12-02T20:19:47.573Z,93.10
2018-12-02T20:22:18.514Z,94.10
2018-12-02T20:24:49.744Z,94.90
2018-12-02T20:27:20.094Z,95.00
2018-12-02T20:29:50.930Z,95.50
2018-12-02T20:32:21.177Z,95.90
2018-12-02T20:34:52.755Z,96.00
2018-12-02T20:37:22.729Z,96.20
2018-12-02T20:39:52.591Z,96.40
2018-12-02T20:42:22.320Z,96.20
2018-12-02T20:44:52.885Z,95.80
2018-12-02T20:47:21.611Z,96.30
2018-12-02T20:49:52.259Z,96.30
2018-12-02T20:52:22.344Z,95.80
2018-12-02T20:54:51.958Z,95.50
2018-12-02T20:57:21.691Z,95.90
2018-12-02T20:59:53.355Z,96.10
2018-12-02T21:02:22.809Z,96.60
2018-12-02T21:04:52.278Z,97.20
2018-12-02T21:07:21.713Z,97.00
2018-12-02T21:09:51.200Z,96.70
2018-12-02T21:12:20.664Z,96.40
2018-12-02T21:14:51.267Z,95.90
2018-12-02T21:17:21.247Z,95.80
2018-12-02T21:19:51.357Z,95.60
2018-12-02T21:22:20.943Z,95.60
2018-12-02T21:24:51.498Z,94.70
2018-12-02T21:27:21.747Z,93.50
2018-12-02T21:29:52.178Z,93.50
2018-12-02T21:32:22.648Z,92.30
2018-12-02T21:34:51.408Z,92.40
2018-12-02T21:37:21.875Z,92.80
2018-12-02T21:39:51.341Z,93.10
2018-12-02T21:42:21.744Z,93.80
2018-12-02T21:44:54.616Z,92.90
2018-12-02T21:47:24.168Z,92.30
2018-12-02T21:49:56.570Z,92.20
2018-12-02T21:52:30.270Z,92.80
2018-12-02T21:55:00.526Z,92.90
2018-12-02T21:57:30.064Z,92.10
2018-12-02T21:59:59.717Z,92.30
2018-12-02T22:02:29.551Z,91.60
2018-12-02T22:04:58.989Z,90.30
2018-12-02T22:07:28.424Z,89.10
2018-12-02T22:09:57.848Z,87.60
2018-12-02T22:12:27.816Z,87.80
2018-12-02T22:14:57.383Z,85.60
2018-12-02T22:17:26.833Z,85.80
2018-12-02T22:19:56.300Z,86.20
2018-12-02T22:22:25.783Z,86.50
2018-12-02T22:24:58.491Z,86.30
2018-12-02T22:27:28.665Z,86.50
2018-12-02T22:29:58.268Z,87.10
2018-12-02T22:32:28.276Z,87.80
2018-12-02T22:34:58.010Z,88.20
2018-12-02T22:37:27.473Z,88.50
2018-12-02T22:39:56.928Z,88.00
2018-12-02T22:42:27.393Z,86.90
2018-12-02T22:44:56.802Z,86.70
2018-12-02T22:47:26.867Z,86.20
2018-12-02T22:49:56.278Z,86.00
2018-12-02T22:52:25.749Z,86.00
2018-12-02T22:54:55.420Z,86.20
2018-12-02T22:57:24.813Z,86.30
2018-12-02T22:59:54.690Z,86.70
2018-12-02T23:02:28.215Z,86.10
2018-12-02T23:04:57.659Z,86.40
2018-12-02T23:07:27.128Z,86.10
2018-12-02T23:09:56.723Z,85.90
2018-12-02T23:12:26.295Z,85.80
2018-12-02T23:14:57.395Z,84.80
2018-12-02T23:17:26.859Z,84.60
2018-12-02T23:19:56.309Z,85.10
2018-12-02T23:22:25.734Z,85.00
2018-12-02T23:24:55.178Z,85.20
2018-12-02T23:27:25.887Z,85.00
2018-12-02T23:29:55.457Z,84.90
2018-12-02T23:32:24.924Z,85.50
2018-12-02T23:34:54.527Z,86.00
2018-12-02T23:37:24.684Z,86.80
2018-12-02T23:39:54.265Z,87.30
2018-12-02T23:42:23.698Z,87.60
2018-12-02T23:44:53.213Z,87.90
2018-12-02T23:47:22.747Z,89.20
2018-12-02T23:49:53.820Z,89.80
2018-12-02T23:52:23.299Z,90.50
2018-12-02T23:54:52.787Z,91.50
2018-12-02T23:57:22.222Z,92.00
2018-12-02T23:59:52.888Z,92.50
